Grand Bay, Canada
Current Conditions -  °F | °C
As of 6:00 AM on Thursday 29 Jan 2015 (Local Time) from CYSJ Reporting Station
Clear Clear  
Wind Chill: -8°   Ceiling: Unl
Heat Index:   Visibility: 15mi
Dew Point:   Wind: 6mph
Humidity: 85%   Direction: 360°N
Pressure: 30.16"   Gusts: NA
Location:  45.3°N, 66.2°W
Report Text: CYSJ 291000Z 36005KT 15SM SKC M16/M18 A3016 RMK SLP221
Loading
Personal Weather Stations






























Interactive Weather Map New forecast layout! Learn more

10-Day Weather Forecast

Advertisements
Track Severe Weather on mobile